Time;durP1;ratioP1;P1;durP2;ratioP2;P2;SDS_P1;SDS_P2;PMS_P1;PMS_P2;Temp;Humidity;BMP_temperature;BMP_pressure;BME280_temperature;BME280_humidity;BME280_pressure;Samples;Min_cycle;Max_cycle;Signal;HPM_P1;HPM_P2
2022/10/29 00:01:43;;;;;;;27.08;8.57;;;15.00;99.90;;;;;;5000364;28;20069;-67
2022/10/29 00:04:09;;;;;;;21.60;7.00;;;15.00;99.90;;;;;;5005269;28;20026;-67
2022/10/29 00:06:34;;;;;;;19.60;6.88;;;15.10;99.90;;;;;;4999177;28;20417;-67
2022/10/29 00:09:00;;;;;;;14.73;6.82;;;15.20;99.90;;;;;;4998033;28;20080;-67
2022/10/29 00:11:26;;;;;;;18.63;7.07;;;15.10;99.90;;;;;;5003187;28;20048;-67
2022/10/29 00:13:54;;;;;;;14.98;6.82;;;15.10;99.90;;;;;;4999690;28;20108;-67
2022/10/29 00:16:23;;;;;;;19.42;7.30;;;15.20;99.90;;;;;;5004716;28;20452;-67
2022/10/29 00:18:48;;;;;;;30.20;7.90;;;15.20;99.90;;;;;;5002431;28;20485;-67
2022/10/29 00:21:16;;;;;;;18.23;7.97;;;15.20;99.90;;;;;;5009132;28;20030;-66
2022/10/29 00:23:42;;;;;;;25.58;7.43;;;15.20;99.90;;;;;;5008624;28;20093;-67
2022/10/29 00:26:08;;;;;;;14.55;6.15;;;15.30;99.90;;;;;;5003417;28;20033;-68
2022/10/29 00:28:34;;;;;;;22.33;6.30;;;15.30;99.90;;;;;;4999727;28;20033;-66
2022/10/29 00:31:10;;;;;;;20.13;7.20;;;15.30;99.90;;;;;;5002975;28;20029;-66
2022/10/29 00:33:35;;;;;;;19.17;6.68;;;15.30;99.90;;;;;;5003843;28;20084;-67
2022/10/29 00:36:04;;;;;;;26.95;7.95;;;15.30;99.90;;;;;;5003837;28;20497;-67
2022/10/29 00:38:34;;;;;;;20.33;7.55;;;15.30;99.90;;;;;;5006130;28;20452;-66
2022/10/29 00:41:00;;;;;;;19.17;7.13;;;15.30;99.90;;;;;;5001138;28;20085;-67
2022/10/29 00:43:27;;;;;;;15.25;5.95;;;15.20;99.90;;;;;;4999886;28;20033;-67
2022/10/29 00:45:58;;;;;;;15.68;6.18;;;15.20;99.90;;;;;;5001362;28;20026;-67
2022/10/29 00:48:26;;;;;;;24.90;6.85;;;15.20;99.90;;;;;;4996614;28;20553;-66
2022/10/29 00:50:53;;;;;;;17.63;5.75;;;15.20;99.90;;;;;;5004176;28;20039;-68
2022/10/29 00:53:24;;;;;;;17.50;6.05;;;15.20;99.90;;;;;;5001495;28;20036;-67
2022/10/29 00:55:50;;;;;;;14.13;5.68;;;15.20;99.90;;;;;;5002147;28;20049;-67
2022/10/29 00:58:16;;;;;;;21.63;6.72;;;15.20;99.90;;;;;;4998410;28;20034;-67
2022/10/29 01:00:43;;;;;;;18.20;7.00;;;15.10;99.90;;;;;;5001237;28;20022;-66
2022/10/29 01:03:09;;;;;;;26.20;11.57;;;15.10;99.90;;;;;;4999886;28;20052;-67
2022/10/29 01:05:35;;;;;;;22.13;10.05;;;15.00;99.90;;;;;;4999034;28;20054;-67
2022/10/29 01:08:02;;;;;;;25.67;11.70;;;15.00;99.90;;;;;;5002710;28;20022;-67
2022/10/29 01:10:56;;;;;;;11.43;7.18;;;15.00;99.90;;;;;;5003326;28;20382;-67
2022/10/29 01:13:33;;;;;;;18.65;7.15;;;15.00;99.90;;;;;;5004372;28;20436;-66
2022/10/29 01:16:23;;;;;;;17.13;8.40;;;15.00;99.90;;;;;;5009584;28;20037;-67
2022/10/29 01:19:12;;;;;;;17.90;8.23;;;14.90;99.90;;;;;;5003274;28;20083;-67
2022/10/29 01:22:02;;;;;;;19.73;7.75;;;14.90;99.90;;;;;;5008587;28;20061;-67
2022/10/29 01:24:42;;;;;;;25.75;6.43;;;14.80;99.90;;;;;;5005046;28;20030;-67
2022/10/29 01:27:27;;;;;;;15.48;7.13;;;14.60;99.90;;;;;;5012757;28;20033;-68
2022/10/29 01:30:10;;;;;;;20.80;8.43;;;14.50;99.90;;;;;;5006030;28;20121;-67
2022/10/29 01:33:07;;;;;;;17.25;6.88;;;14.40;99.90;;;;;;5011500;28;20401;-67
2022/10/29 01:35:46;;;;;;;19.58;7.57;;;14.30;99.90;;;;;;5011652;28;20037;-67
2022/10/29 01:38:33;;;;;;;16.10;7.75;;;14.20;99.90;;;;;;5002340;28;20096;-67
2022/10/29 01:41:13;;;;;;;20.45;8.07;;;14.30;99.90;;;;;;5006934;28;20495;-68
2022/10/29 01:43:50;;;;;;;26.65;7.45;;;14.20;99.90;;;;;;4999248;28;20073;-68
2022/10/29 01:46:20;;;;;;;16.45;7.78;;;14.20;99.90;;;;;;5006496;28;20057;-67
2022/10/29 01:48:50;;;;;;;18.20;7.63;;;14.20;99.90;;;;;;5005862;28;20121;-67
2022/10/29 01:51:26;;;;;;;20.80;7.07;;;14.20;99.90;;;;;;5012849;28;20190;-66
2022/10/29 01:53:52;;;;;;;26.17;7.55;;;14.20;99.90;;;;;;5006496;28;20060;-67
2022/10/29 01:56:18;;;;;;;36.33;8.70;;;14.20;99.90;;;;;;5009911;28;20370;-67
2022/10/29 01:58:48;;;;;;;15.38;6.68;;;14.20;99.90;;;;;;5001366;28;20022;-67
2022/10/29 02:01:29;;;;;;;24.92;7.93;;;14.10;99.90;;;;;;5009753;28;20508;-66
2022/10/29 02:04:16;;;;;;;20.52;7.97;;;14.10;99.90;;;;;;5005533;28;20401;-67
2022/10/29 02:06:47;;;;;;;13.82;7.38;;;14.10;99.90;;;;;;5013479;28;20030;-67
2022/10/29 02:09:30;;;;;;;26.38;7.45;;;14.20;99.90;;;;;;5008829;28;20076;-66
2022/10/29 02:12:14;;;;;;;13.48;7.03;;;14.20;99.90;;;;;;5012963;28;20093;-67
2022/10/29 02:15:16;;;;;;;25.77;7.57;;;14.30;99.90;;;;;;5012338;28;20033;-67
2022/10/29 02:17:42;;;;;;;22.80;7.68;;;14.30;99.90;;;;;;4972574;28;20510;-66
2022/10/29 02:20:10;;;;;;;15.40;7.28;;;14.20;99.90;;;;;;5010129;28;20038;-66
2022/10/29 02:22:36;;;;;;;20.92;8.52;;;14.10;99.90;;;;;;5007280;28;20091;-67
2022/10/29 02:25:03;;;;;;;23.45;7.28;;;14.10;99.90;;;;;;5005354;28;20474;-67
2022/10/29 02:27:29;;;;;;;15.63;7.35;;;14.10;99.90;;;;;;5003630;28;20085;-67
2022/10/29 02:29:54;;;;;;;22.70;8.13;;;14.00;99.90;;;;;;5008034;28;20033;-67
2022/10/29 02:32:20;;;;;;;15.43;7.10;;;13.90;99.90;;;;;;5012780;28;20041;-67
2022/10/29 02:34:45;;;;;;;25.67;7.43;;;13.90;99.90;;;;;;5004298;28;20038;-67
2022/10/29 02:37:11;;;;;;;24.63;7.40;;;13.90;99.90;;;;;;5003584;28;20366;-65
2022/10/29 02:39:37;;;;;;;22.02;7.63;;;13.90;99.90;;;;;;4998882;28;20374;-67
2022/10/29 02:42:02;;;;;;;18.55;8.38;;;13.90;99.90;;;;;;5009187;28;20064;-66
2022/10/29 02:44:28;;;;;;;21.85;8.20;;;13.90;99.90;;;;;;5009947;28;20439;-67
2022/10/29 02:46:53;;;;;;;24.02;7.95;;;13.90;99.90;;;;;;5006331;28;20048;-67
2022/10/29 02:49:19;;;;;;;15.52;7.20;;;13.80;99.90;;;;;;5003380;28;20029;-66
2022/10/29 02:51:45;;;;;;;18.27;6.22;;;13.80;99.90;;;;;;5005478;28;20079;-67
2022/10/29 02:54:10;;;;;;;15.95;5.85;;;13.70;99.90;;;;;;5010649;28;20022;-66
2022/10/29 02:56:36;;;;;;;11.40;6.25;;;13.60;99.90;;;;;;5004302;28;20393;-67
2022/10/29 02:59:01;;;;;;;14.10;6.32;;;13.60;99.90;;;;;;5007207;28;20119;-67
2022/10/29 03:01:27;;;;;;;18.73;7.80;;;13.60;99.90;;;;;;5009835;28;20048;-66
2022/10/29 03:03:53;;;;;;;15.48;7.03;;;13.50;99.90;;;;;;5011064;28;20036;-67
2022/10/29 03:06:19;;;;;;;19.73;6.47;;;13.50;99.90;;;;;;5002349;28;20069;-66
2022/10/29 03:08:45;;;;;;;16.88;8.10;;;13.50;99.90;;;;;;5005386;28;20065;-66
2022/10/29 03:11:11;;;;;;;15.88;6.82;;;13.50;99.90;;;;;;5011728;28;20062;-66
2022/10/29 03:13:37;;;;;;;29.88;8.30;;;13.50;99.90;;;;;;5002726;28;20499;-66
2022/10/29 03:16:03;;;;;;;17.88;6.90;;;13.70;99.90;;;;;;4997630;28;20053;-67
2022/10/29 03:18:28;;;;;;;17.63;6.40;;;13.70;99.90;;;;;;5003159;28;20026;-67
2022/10/29 03:20:54;;;;;;;17.80;7.13;;;13.60;99.90;;;;;;4999892;28;20125;-67
2022/10/29 03:23:21;;;;;;;15.93;6.57;;;13.60;99.90;;;;;;5002457;28;20033;-66
2022/10/29 03:25:54;;;;;;;19.95;7.30;;;13.50;99.90;;;;;;5009629;28;20617;-66
2022/10/29 03:28:21;;;;;;;19.73;7.75;;;13.40;99.90;;;;;;5010080;28;20026;-66
2022/10/29 03:30:47;;;;;;;31.60;9.05;;;13.40;99.90;;;;;;5009475;28;20104;-67
2022/10/29 03:33:13;;;;;;;20.60;7.97;;;13.30;99.90;;;;;;5011271;28;20466;-67
2022/10/29 03:35:38;;;;;;;27.98;8.38;;;13.20;99.90;;;;;;5003506;28;20033;-66
2022/10/29 03:38:04;;;;;;;20.90;8.30;;;13.20;99.90;;;;;;4998398;28;20030;-66
2022/10/29 03:40:30;;;;;;;30.95;9.30;;;13.10;99.90;;;;;;5002109;28;20025;-66
2022/10/29 03:42:55;;;;;;;20.05;7.70;;;13.10;99.90;;;;;;5008921;28;20104;-66
2022/10/29 03:45:21;;;;;;;22.38;8.57;;;13.20;99.90;;;;;;5007117;28;20135;-67
2022/10/29 03:47:46;;;;;;;17.77;7.75;;;13.10;99.90;;;;;;5009978;28;20022;-66
2022/10/29 03:50:12;;;;;;;29.05;8.38;;;13.10;99.90;;;;;;5006269;28;20108;-66
2022/10/29 03:52:38;;;;;;;22.02;8.40;;;13.10;99.90;;;;;;5005484;28;20030;-66
2022/10/29 03:55:04;;;;;;;25.77;8.57;;;13.00;99.90;;;;;;5008994;28;20030;-67
2022/10/29 03:57:30;;;;;;;24.77;7.85;;;13.00;99.90;;;;;;5000255;28;20022;-66
2022/10/29 03:59:55;;;;;;;21.38;7.88;;;13.00;99.90;;;;;;5011161;28;20105;-66
2022/10/29 04:02:21;;;;;;;21.38;8.48;;;13.20;99.90;;;;;;5008437;28;20124;-67
2022/10/29 04:04:47;;;;;;;23.27;8.25;;;13.20;99.90;;;;;;5009306;28;20069;-67
2022/10/29 04:07:13;;;;;;;20.15;8.48;;;13.30;99.90;;;;;;4995324;28;20034;-67
2022/10/29 04:09:38;;;;;;;20.30;7.75;;;13.30;99.90;;;;;;5010851;28;20058;-67
2022/10/29 04:12:04;;;;;;;15.38;8.43;;;13.30;99.90;;;;;;5003101;28;20502;-66
2022/10/29 04:14:30;;;;;;;23.25;7.50;;;13.30;99.90;;;;;;5003439;28;20052;-67
2022/10/29 04:16:57;;;;;;;13.90;7.38;;;13.30;99.90;;;;;;4999916;28;20030;-67
2022/10/29 04:19:22;;;;;;;18.90;7.90;;;13.40;99.90;;;;;;5002235;28;20030;-66
2022/10/29 04:21:48;;;;;;;19.10;7.32;;;13.40;99.90;;;;;;5010000;28;20026;-66
2022/10/29 04:24:14;;;;;;;16.73;7.63;;;13.40;99.90;;;;;;5006144;28;20033;-66
2022/10/29 04:26:42;;;;;;;19.50;7.38;;;13.40;99.90;;;;;;5005764;28;20030;-67
2022/10/29 04:29:08;;;;;;;30.15;7.65;;;13.40;99.90;;;;;;4999352;28;20026;-67
2022/10/29 04:31:33;;;;;;;17.73;6.80;;;13.40;99.90;;;;;;5008698;28;20025;-66
2022/10/29 04:33:59;;;;;;;21.50;7.70;;;13.30;99.90;;;;;;5000139;28;20034;-67
2022/10/29 04:36:24;;;;;;;20.50;8.25;;;13.40;99.90;;;;;;5002328;28;20026;-67
2022/10/29 04:38:50;;;;;;;26.30;8.50;;;13.40;99.90;;;;;;5001111;28;20017;-66
2022/10/29 04:41:15;;;;;;;21.00;7.50;;;13.40;99.90;;;;;;5008868;28;20027;-66
2022/10/29 04:43:41;;;;;;;17.25;7.70;;;13.50;99.90;;;;;;5001017;28;20033;-67
2022/10/29 04:46:08;;;;;;;24.20;7.97;;;13.50;99.90;;;;;;4996978;28;20061;-67
2022/10/29 04:48:34;;;;;;;15.52;7.00;;;13.60;99.90;;;;;;5010272;28;20018;-68
2022/10/29 04:50:59;;;;;;;23.52;7.80;;;13.60;99.90;;;;;;5003995;28;20030;-66
2022/10/29 04:53:25;;;;;;;19.88;7.57;;;13.70;99.90;;;;;;5008880;28;20030;-66
2022/10/29 04:55:50;;;;;;;24.35;7.15;;;13.70;99.90;;;;;;5006667;28;20026;-66
2022/10/29 04:58:18;;;;;;;22.65;6.78;;;13.70;99.90;;;;;;4995745;28;20054;-66
2022/10/29 05:00:44;;;;;;;28.70;8.20;;;13.50;99.90;;;;;;5004942;28;20030;-67
2022/10/29 05:03:10;;;;;;;16.85;7.20;;;13.40;99.90;;;;;;5007380;28;20178;-66
2022/10/29 05:05:37;;;;;;;20.42;7.65;;;13.40;99.90;;;;;;4998799;28;20117;-67
2022/10/29 05:08:04;;;;;;;23.67;6.78;;;13.40;99.90;;;;;;5009018;28;20065;-66
2022/10/29 05:10:32;;;;;;;16.15;6.53;;;13.40;99.90;;;;;;5007846;28;20530;-66
2022/10/29 05:12:58;;;;;;;23.10;7.30;;;13.40;99.90;;;;;;5001076;28;20057;-67
2022/10/29 05:15:24;;;;;;;17.55;6.53;;;13.50;99.90;;;;;;5004557;28;20077;-65
2022/10/29 05:17:50;;;;;;;21.73;6.97;;;13.40;99.90;;;;;;4993038;28;20038;-66
2022/10/29 05:20:16;;;;;;;16.60;6.10;;;13.50;99.90;;;;;;5004379;28;20137;-67
2022/10/29 05:22:41;;;;;;;13.77;6.45;;;13.50;99.90;;;;;;4998444;28;20046;-67
2022/10/29 05:25:07;;;;;;;15.40;7.80;;;13.50;99.90;;;;;;5005935;28;20138;-66
2022/10/29 05:27:32;;;;;;;15.82;6.40;;;13.50;99.90;;;;;;4998199;28;20045;-67
2022/10/29 05:29:58;;;;;;;21.48;7.28;;;13.50;99.90;;;;;;4997580;28;20034;-66
2022/10/29 05:32:24;;;;;;;16.33;7.05;;;13.60;99.90;;;;;;5008668;28;20026;-67
2022/10/29 05:34:49;;;;;;;11.45;6.47;;;13.60;99.90;;;;;;4997409;28;20031;-67
2022/10/29 05:37:15;;;;;;;15.63;6.85;;;13.70;99.90;;;;;;5007002;28;20026;-66
2022/10/29 05:39:40;;;;;;;13.88;5.75;;;13.70;99.90;;;;;;5003334;28;20027;-68
2022/10/29 05:42:06;;;;;;;18.02;6.68;;;13.70;99.90;;;;;;4999293;28;20026;-66
2022/10/29 05:44:32;;;;;;;17.65;5.72;;;13.80;99.90;;;;;;5001928;28;20030;-67
2022/10/29 05:46:57;;;;;;;19.83;5.82;;;13.80;99.90;;;;;;5003921;28;20464;-67
2022/10/29 05:49:23;;;;;;;14.80;6.20;;;13.90;99.90;;;;;;4989455;28;20041;-65
2022/10/29 05:51:48;;;;;;;21.50;6.40;;;13.90;99.90;;;;;;5005535;28;20030;-66
2022/10/29 05:54:14;;;;;;;10.73;4.97;;;13.90;99.90;;;;;;5007410;28;20101;-66
2022/10/29 05:56:39;;;;;;;16.65;5.55;;;14.00;99.90;;;;;;4997833;28;20421;-66
2022/10/29 05:59:05;;;;;;;15.63;6.40;;;14.00;99.90;;;;;;5003058;28;20030;-68
2022/10/29 06:01:30;;;;;;;21.35;7.38;;;14.10;99.90;;;;;;4999991;28;20037;-66
2022/10/29 06:03:56;;;;;;;19.50;6.18;;;14.10;99.90;;;;;;5010100;28;20030;-66
2022/10/29 06:06:22;;;;;;;17.90;5.97;;;14.10;99.90;;;;;;5003182;28;20034;-67
2022/10/29 06:08:48;;;;;;;20.90;6.28;;;14.00;99.90;;;;;;5004185;28;20110;-67
2022/10/29 06:11:13;;;;;;;14.77;6.05;;;14.00;99.90;;;;;;5006192;28;20018;-67
2022/10/29 06:13:39;;;;;;;14.77;6.47;;;14.10;99.90;;;;;;5005190;28;20435;-66
2022/10/29 06:16:05;;;;;;;16.48;5.30;;;14.10;99.90;;;;;;5009203;28;20054;-67
2022/10/29 06:18:30;;;;;;;15.85;5.57;;;14.20;99.90;;;;;;5008153;28;20026;-67
2022/10/29 06:20:59;;;;;;;17.45;5.82;;;14.20;99.90;;;;;;5005216;28;20409;-67
2022/10/29 06:23:26;;;;;;;16.05;6.40;;;14.30;99.90;;;;;;4995635;28;20046;-67
2022/10/29 06:25:52;;;;;;;19.88;5.95;;;14.30;99.90;;;;;;5007941;28;20065;-66
2022/10/29 06:28:18;;;;;;;18.42;7.50;;;14.40;99.90;;;;;;5004697;28;20057;-66
2022/10/29 06:30:49;;;;;;;13.45;5.10;;;14.40;99.90;;;;;;5008756;28;20049;-66
2022/10/29 06:33:16;;;;;;;16.73;6.72;;;14.40;99.90;;;;;;4995903;28;20428;-68
2022/10/29 06:35:41;;;;;;;14.07;5.78;;;14.50;99.90;;;;;;5000379;28;20493;-67
2022/10/29 06:38:07;;;;;;;15.07;5.25;;;14.50;99.90;;;;;;5007071;28;20027;-67
2022/10/29 06:40:32;;;;;;;15.70;5.30;;;14.60;99.90;;;;;;5004879;28;20042;-66
2022/10/29 06:43:06;;;;;;;16.80;5.88;;;14.60;99.90;;;;;;5002829;28;20038;-67
2022/10/29 06:45:33;;;;;;;15.00;4.65;;;14.60;99.90;;;;;;5007203;28;20022;-68
2022/10/29 06:47:58;;;;;;;18.58;5.50;;;14.70;99.90;;;;;;5004740;28;20505;-67
2022/10/29 06:50:24;;;;;;;14.45;5.28;;;14.70;99.90;;;;;;4996077;28;20049;-68
2022/10/29 06:52:54;;;;;;;19.70;6.35;;;14.80;99.90;;;;;;5009922;28;20038;-67
2022/10/29 06:55:19;;;;;;;19.40;6.13;;;14.80;99.90;;;;;;5008005;28;20424;-68
2022/10/29 06:57:45;;;;;;;24.52;6.10;;;14.80;99.90;;;;;;5005348;28;20109;-68
2022/10/29 07:00:11;;;;;;;21.85;5.80;;;14.90;99.90;;;;;;4971966;28;21046;-68
2022/10/29 07:02:36;;;;;;;15.25;5.05;;;14.90;99.90;;;;;;5006602;28;20405;-68
2022/10/29 07:05:02;;;;;;;13.77;5.35;;;15.00;99.90;;;;;;5007022;28;20073;-68
2022/10/29 07:07:28;;;;;;;14.98;5.15;;;15.10;99.90;;;;;;5002910;28;20025;-69
2022/10/29 07:09:54;;;;;;;21.27;5.45;;;15.10;99.90;;;;;;5004727;28;20049;-68
2022/10/29 07:12:19;;;;;;;14.27;4.38;;;15.10;99.90;;;;;;5003625;28;20026;-68
2022/10/29 07:14:45;;;;;;;10.73;4.90;;;15.10;99.90;;;;;;5002741;28;20058;-69
2022/10/29 07:17:10;;;;;;;18.52;5.35;;;15.10;99.90;;;;;;5006556;28;20017;-66
2022/10/29 07:19:36;;;;;;;10.98;4.25;;;15.10;99.90;;;;;;5001665;28;20070;-65
2022/10/29 07:22:01;;;;;;;16.40;4.47;;;15.10;99.90;;;;;;5002316;28;20022;-68
2022/10/29 07:24:27;;;;;;;15.23;5.90;;;15.10;99.90;;;;;;5010570;28;20034;-68
2022/10/29 07:26:52;;;;;;;15.50;5.03;;;15.10;99.90;;;;;;5009322;28;20493;-69
2022/10/29 07:29:18;;;;;;;14.55;4.78;;;15.10;99.90;;;;;;4994322;28;20116;-65
2022/10/29 07:31:44;;;;;;;13.63;4.63;;;15.10;99.90;;;;;;5009168;28;20033;-68
2022/10/29 07:34:09;;;;;;;16.40;5.43;;;15.20;99.90;;;;;;5001936;28;20030;-68
2022/10/29 07:36:35;;;;;;;12.48;4.72;;;15.20;99.90;;;;;;5010962;28;20053;-66
2022/10/29 07:39:02;;;;;;;16.08;4.63;;;15.30;99.90;;;;;;5006330;28;20029;-66
2022/10/29 07:41:28;;;;;;;11.55;4.78;;;15.40;99.90;;;;;;5009316;28;20022;-66
2022/10/29 07:43:53;;;;;;;14.52;5.32;;;15.60;99.90;;;;;;5004159;28;20036;-67
2022/10/29 07:46:19;;;;;;;14.43;4.80;;;15.70;99.90;;;;;;5008314;28;20041;-67
2022/10/29 07:48:45;;;;;;;13.18;5.32;;;15.80;99.90;;;;;;5005539;28;20751;-66
2022/10/29 07:51:11;;;;;;;15.65;4.47;;;16.00;99.90;;;;;;4999763;28;20026;-67
2022/10/29 07:53:36;;;;;;;17.23;5.30;;;16.10;99.90;;;;;;5003319;28;20026;-66
2022/10/29 07:56:02;;;;;;;11.02;4.45;;;16.30;99.90;;;;;;5009386;28;20080;-66
2022/10/29 07:58:28;;;;;;;17.95;4.45;;;16.40;99.90;;;;;;5010227;28;20571;-66
2022/10/29 08:00:53;;;;;;;15.18;4.15;;;16.60;99.90;;;;;;5005162;28;20049;-66
2022/10/29 08:03:19;;;;;;;17.05;4.57;;;16.70;99.90;;;;;;5008023;28;20034;-66
2022/10/29 08:05:48;;;;;;;11.85;4.43;;;16.70;99.90;;;;;;5008174;28;20025;-66
2022/10/29 08:08:13;;;;;;;13.30;4.35;;;16.70;99.90;;;;;;5010436;28;20100;-66
2022/10/29 08:10:39;;;;;;;18.70;5.13;;;16.70;99.90;;;;;;5007922;28;20144;-67
2022/10/29 08:13:05;;;;;;;13.55;4.75;;;16.80;99.90;;;;;;5007980;28;20076;-66
2022/10/29 08:15:33;;;;;;;16.38;4.18;;;16.90;99.90;;;;;;5007341;28;20033;-66
2022/10/29 08:18:00;;;;;;;11.32;4.03;;;17.10;99.90;;;;;;5007306;28;20026;-66
2022/10/29 08:20:27;;;;;;;11.07;4.38;;;17.20;99.90;;;;;;5009519;28;20034;-67
2022/10/29 08:22:53;;;;;;;16.10;4.00;;;17.20;99.90;;;;;;5007416;28;20034;-66
2022/10/29 08:25:19;;;;;;;12.98;4.70;;;17.30;99.90;;;;;;5001602;28;20071;-66
2022/10/29 08:27:45;;;;;;;11.25;4.20;;;17.30;99.90;;;;;;5010238;28;20033;-66
2022/10/29 08:30:12;;;;;;;13.95;4.38;;;17.40;99.90;;;;;;5009837;28;20026;-66
2022/10/29 08:32:45;;;;;;;16.35;5.13;;;17.40;99.90;;;;;;5007713;28;20033;-67
2022/10/29 08:35:11;;;;;;;23.00;3.87;;;17.60;99.90;;;;;;5007037;28;20026;-68
2022/10/29 08:37:43;;;;;;;13.65;4.43;;;17.60;99.90;;;;;;5010119;28;20026;-66
2022/10/29 08:40:18;;;;;;;9.65;3.88;;;17.60;99.90;;;;;;5007419;28;20030;-67
2022/10/29 08:43:22;;;;;;;13.38;4.15;;;17.60;99.90;;;;;;5008432;28;20022;-66
2022/10/29 08:45:51;;;;;;;13.43;3.95;;;17.60;99.90;;;;;;5001922;28;20033;-67
2022/10/29 08:48:40;;;;;;;12.45;3.83;;;17.60;99.90;;;;;;5008752;28;20041;-66
2022/10/29 08:51:34;;;;;;;20.48;4.10;;;17.50;99.90;;;;;;5002738;28;20034;-66
2022/10/29 08:54:00;;;;;;;;;;;17.40;99.90;;;;;;5009970;28;20444;-66
2022/10/29 08:56:34;;;;;;;9.88;3.92;;;17.60;99.90;;;;;;5008012;28;19910;-66
2022/10/29 08:59:05;;;;;;;15.38;4.20;;;17.60;99.90;;;;;;5008207;28;20030;-67
2022/10/29 09:01:31;;;;;;;18.77;6.13;;;17.60;99.90;;;;;;4985970;28;20065;-66
2022/10/29 09:03:57;;;;;;;15.77;3.83;;;17.70;99.90;;;;;;4998478;28;20125;-66
2022/10/29 09:06:58;;;;;;;6.93;3.60;;;17.70;99.90;;;;;;4989558;28;20085;-66
2022/10/29 09:09:38;;;;;;;10.40;4.18;;;17.80;99.90;;;;;;4981526;28;20046;-66
2022/10/29 09:12:24;;;;;;;9.60;3.60;;;17.80;99.90;;;;;;4993987;28;20034;-66
2022/10/29 09:15:11;;;;;;;10.98;3.97;;;17.90;99.90;;;;;;4986829;28;20027;-67
2022/10/29 09:17:42;;;;;;;21.08;4.30;;;17.90;99.90;;;;;;4988490;28;20134;-66
2022/10/29 09:20:16;;;;;;;12.13;4.57;;;18.00;99.90;;;;;;4989234;28;20037;-67
2022/10/29 09:22:59;;;;;;;19.38;4.88;;;18.10;99.90;;;;;;4980704;28;20038;-67
2022/10/29 09:25:46;;;;;;;22.77;4.05;;;18.10;99.90;;;;;;4989391;28;20410;-66
2022/10/29 09:28:42;;;;;;;12.63;3.78;;;18.30;99.90;;;;;;4998716;28;20042;-66
2022/10/29 09:31:46;;;;;;;10.00;3.10;;;18.50;99.90;;;;;;4986380;28;20034;-66
2022/10/29 09:34:27;;;;;;;16.70;4.90;;;18.80;99.90;;;;;;4966869;28;20045;-67
2022/10/29 09:36:54;;;;;;;15.52;4.38;;;19.20;99.90;;;;;;4987651;28;20037;-66
2022/10/29 09:39:32;;;;;;;12.48;3.80;;;19.50;99.90;;;;;;4991635;28;20037;-67
2022/10/29 09:42:00;;;;;;;15.45;3.97;;;19.80;99.90;;;;;;4986875;28;20113;-66
2022/10/29 09:44:38;;;;;;;10.02;3.60;;;19.90;99.90;;;;;;4993727;28;20080;-67
2022/10/29 09:47:06;;;;;;;11.90;3.67;;;20.00;99.90;;;;;;4995684;28;20106;-67
2022/10/29 09:49:46;;;;;;;15.20;5.13;;;20.10;99.90;;;;;;4999130;28;21709;-67
2022/10/29 09:52:18;;;;;;;11.07;3.47;;;19.90;99.90;;;;;;4991231;28;20034;-67
2022/10/29 09:54:44;;;;;;;8.80;3.40;;;19.90;99.90;;;;;;4990203;28;20027;-67
2022/10/29 09:57:20;;;;;;;16.17;4.15;;;19.60;99.90;;;;;;4995702;28;20061;-67
2022/10/29 09:59:54;;;;;;;19.13;3.92;;;19.60;99.90;;;;;;4997842;28;20030;-67
2022/10/29 10:02:25;;;;;;;;;;;19.70;99.90;;;;;;4977760;28;20105;-67
2022/10/29 10:04:55;;;;;;;13.77;3.70;;;19.80;99.90;;;;;;4992253;28;19917;-67
2022/10/29 10:07:21;;;;;;;15.93;3.33;;;19.90;99.90;;;;;;4993677;28;20062;-66
2022/10/29 10:09:51;;;;;;;13.85;4.18;;;20.00;99.90;;;;;;4992987;28;20060;-67
2022/10/29 10:12:19;;;;;;;15.25;4.32;;;20.20;99.90;;;;;;4989358;28;20547;-67
2022/10/29 10:14:46;;;;;;;11.57;3.75;;;20.30;99.90;;;;;;4989491;28;20030;-67
2022/10/29 10:17:12;;;;;;;14.85;3.40;;;20.30;99.90;;;;;;4992390;28;20023;-65
2022/10/29 10:19:44;;;;;;;16.33;4.57;;;20.40;99.90;;;;;;5000692;28;20018;-66
2022/10/29 10:22:23;;;;;;;18.40;4.47;;;20.50;99.90;;;;;;4998778;28;20058;-67
2022/10/29 10:24:48;;;;;;;12.82;3.75;;;20.50;99.90;;;;;;4991964;28;20446;-66
2022/10/29 10:27:17;;;;;;;12.52;3.75;;;20.60;99.90;;;;;;4990521;28;20069;-67
2022/10/29 10:29:43;;;;;;;16.67;3.28;;;20.60;99.90;;;;;;4994588;28;20033;-65
2022/10/29 10:32:14;;;;;;;14.70;4.15;;;20.60;99.90;;;;;;4988959;28;20026;-67
2022/10/29 10:34:39;;;;;;;10.95;4.03;;;20.80;99.90;;;;;;4989749;28;20045;-67
2022/10/29 10:37:17;;;;;;;10.82;4.28;;;21.00;99.90;;;;;;4998100;28;20055;-66
2022/10/29 10:39:47;;;;;;;7.25;2.90;;;21.10;99.90;;;;;;4983140;28;20038;-67
2022/10/29 10:42:23;;;;;;;15.45;3.35;;;21.10;99.90;;;;;;4999380;28;20037;-67
2022/10/29 10:44:57;;;;;;;12.13;3.72;;;21.30;99.90;;;;;;4989860;28;20037;-67
2022/10/29 10:47:24;;;;;;;;;;;21.30;99.90;;;;;;4994583;28;20065;-67
2022/10/29 10:49:49;;;;;;;13.63;4.18;;;21.30;99.90;;;;;;4988304;28;20092;-66
2022/10/29 10:52:31;;;;;;;15.63;4.75;;;21.40;99.90;;;;;;4986961;28;20528;-67
2022/10/29 10:55:07;;;;;;;9.73;3.13;;;21.50;99.90;;;;;;4990290;28;20521;-66
2022/10/29 10:57:48;;;;;;;9.05;3.03;;;21.50;99.90;;;;;;4992638;28;20034;-67
2022/10/29 11:00:21;;;;;;;11.90;3.05;;;21.50;99.90;;;;;;4985936;28;20025;-66
2022/10/29 11:03:07;;;;;;;11.07;3.23;;;21.60;99.90;;;;;;4988253;28;20076;-67
2022/10/29 11:05:39;;;;;;;16.40;4.03;;;21.40;99.90;;;;;;5005433;28;20042;-66
2022/10/29 11:08:25;;;;;;;17.80;3.42;;;21.50;99.90;;;;;;5012448;28;20033;-67
2022/10/29 11:11:07;;;;;;;14.73;3.53;;;21.30;99.90;;;;;;5004978;28;20084;-67
2022/10/29 11:13:33;;;;;;;12.40;3.58;;;21.20;99.90;;;;;;5001699;28;20631;-67
2022/10/29 11:16:15;;;;;;;11.13;3.28;;;21.10;99.90;;;;;;5010049;28;20113;-67
2022/10/29 11:18:48;;;;;;;8.93;3.90;;;21.10;99.90;;;;;;5006742;28;20026;-66
2022/10/29 11:21:18;;;;;;;12.57;3.10;;;21.10;99.90;;;;;;4999608;28;20026;-67
2022/10/29 11:23:52;;;;;;;14.07;3.65;;;21.10;99.90;;;;;;5006955;28;20022;-66
2022/10/29 11:26:43;;;;;;;9.10;3.60;;;21.10;99.90;;;;;;4999295;28;20034;-67
2022/10/29 11:29:33;;;;;;;17.10;4.00;;;21.20;99.90;;;;;;5000350;28;20037;-67
2022/10/29 11:32:38;;;;;;;15.50;3.20;;;21.20;99.90;;;;;;4999863;28;20087;-67
2022/10/29 11:35:30;;;;;;;13.73;3.80;;;21.40;99.90;;;;;;5004066;28;20060;-66
2022/10/29 11:38:03;;;;;;;15.38;2.90;;;21.40;99.90;;;;;;5001797;28;20053;-67
2022/10/29 11:40:50;;;;;;;11.43;3.40;;;21.30;99.90;;;;;;5002944;28;20022;-67
2022/10/29 11:43:19;;;;;;;13.52;4.10;;;21.50;99.90;;;;;;5000318;28;20449;-67
2022/10/29 11:46:08;;;;;;;13.85;3.25;;;21.50;99.90;;;;;;5002960;28;20490;-66
2022/10/29 11:48:47;;;;;;;9.98;3.22;;;21.50;99.90;;;;;;5006396;28;20072;-65
2022/10/29 11:51:32;;;;;;;19.00;4.65;;;21.60;99.90;;;;;;5008220;28;20380;-65
2022/10/29 11:54:34;;;;;;;14.77;3.30;;;21.60;99.90;;;;;;4999400;28;20040;-65
2022/10/29 11:57:15;;;;;;;9.75;3.13;;;21.60;99.90;;;;;;5002548;28;20029;-65
2022/10/29 11:59:58;;;;;;;10.20;3.20;;;21.60;99.90;;;;;;4996768;28;20396;-67
2022/10/29 12:02:54;;;;;;;13.77;3.42;;;21.60;99.90;;;;;;4980957;28;20046;-66
2022/10/29 12:05:29;;;;;;;13.05;2.90;;;21.60;99.90;;;;;;4985292;28;20077;-66
2022/10/29 12:08:03;;;;;;;10.13;3.50;;;21.60;99.90;;;;;;4984346;28;20118;-66
2022/10/29 12:10:56;;;;;;;12.13;3.10;;;21.70;99.90;;;;;;4989772;28;20030;-66
2022/10/29 12:14:03;;;;;;;14.23;3.90;;;21.70;99.90;;;;;;4990059;28;20662;-65
2022/10/29 12:16:41;;;;;;;14.57;3.20;;;21.60;99.90;;;;;;4985847;28;20543;-66
2022/10/29 12:19:19;;;;;;;11.15;3.45;;;21.60;99.90;;;;;;4990635;28;20022;-66
2022/10/29 12:21:53;;;;;;;9.23;2.88;;;21.50;99.90;;;;;;4984638;28;20073;-65
2022/10/29 12:24:47;;;;;;;8.10;2.85;;;21.50;99.90;;;;;;4985308;28;20567;-66
2022/10/29 12:27:35;;;;;;;16.10;3.42;;;21.50;99.90;;;;;;4985356;28;20125;-66
2022/10/29 12:30:06;;;;;;;8.00;3.58;;;21.40;99.90;;;;;;4986422;28;20030;-67
2022/10/29 12:32:53;;;;;;;16.70;3.63;;;21.50;99.90;;;;;;4988011;28;20452;-67
2022/10/29 12:35:52;;;;;;;14.88;3.38;;;21.50;99.90;;;;;;4987386;28;20033;-67
2022/10/29 12:38:43;;;;;;;9.88;3.30;;;21.50;99.90;;;;;;4984156;28;20062;-67
2022/10/29 12:41:19;;;;;;;12.23;3.22;;;21.60;99.90;;;;;;4977507;28;20042;-67
2022/10/29 12:43:46;;;;;;;12.23;3.47;;;21.50;99.90;;;;;;4989545;28;20113;-66
2022/10/29 12:46:30;;;;;;;11.43;4.03;;;21.60;99.90;;;;;;4990716;28;20429;-67
2022/10/29 12:48:56;;;;;;;;;;;21.50;99.90;;;;;;4988608;28;20026;-67
2022/10/29 12:51:34;;;;;;;10.23;3.72;;;21.50;99.90;;;;;;4988325;28;19913;-67
2022/10/29 12:54:21;;;;;;;9.02;2.85;;;21.50;99.90;;;;;;4989262;28;20049;-66
2022/10/29 12:56:47;;;;;;;14.73;3.53;;;21.60;99.90;;;;;;4986629;28;20104;-67
2022/10/29 12:59:33;;;;;;;9.38;3.05;;;21.50;99.90;;;;;;4987798;28;20089;-67